FOR weather

Pinto Martins International Airport
Fortaleza, CearĂ¡, Brazil

Public forecast

Using degrees Celsius for public forecast. Weather courtesy of forecast.io.

METAR (pilot weather report)

Retrieved 2019/07/24 05:00 UTC (48 minutes ago):

SBFZ 240500Z 12008KT 9999 FEW023 26/22 Q1013

TAF (pilot weather forecast)

Retrieved 2019/07/24 00:00 UTC (6 hours ago):

TAF SBFZ 232200Z 2400/2424 13010KT 9999 SCT020 TN24/2408Z TX31/2417Z BECMG 2413/2415 13016KT RMK PEU